createdAt,value
2018-01-05T00:00:02.734Z,961.78
2018-01-05T00:01:11.922Z,961.74
2018-01-05T00:02:21.638Z,961.75
2018-01-05T00:03:31.626Z,961.8
2018-01-05T00:04:41.606Z,961.77
2018-01-05T00:05:51.323Z,961.77
2018-01-05T00:07:01.361Z,961.75
2018-01-05T00:08:11.346Z,961.8
2018-01-05T00:09:21.062Z,961.8
2018-01-05T00:10:30.792Z,961.81
2018-01-05T00:11:40.829Z,961.79
2018-01-05T00:12:50.815Z,961.84
2018-01-05T00:14:00.797Z,961.85
2018-01-05T00:15:10.515Z,961.8
2018-01-05T00:16:20.497Z,961.81
2018-01-05T00:17:30.484Z,961.84
2018-01-05T00:18:40.475Z,961.81
2018-01-05T00:19:50.460Z,961.81
2018-01-05T00:20:59.910Z,961.83
2018-01-05T00:22:09.656Z,961.84
2018-01-05T00:23:19.374Z,961.82
2018-01-05T00:24:29.360Z,961.88
2018-01-05T00:25:39.136Z,961.87
2018-01-05T00:26:49.121Z,961.85
2018-01-05T00:27:59.103Z,961.84
2018-01-05T00:29:09.099Z,961.86
2018-01-05T00:30:19.084Z,961.86
2018-01-05T00:31:29.118Z,961.8
2018-01-05T00:32:39.103Z,961.81
2018-01-05T00:33:49.088Z,961.8
2018-01-05T00:34:59.076Z,961.85
2018-01-05T00:36:08.793Z,961.83
2018-01-05T00:37:18.775Z,961.84
2018-01-05T00:38:28.492Z,961.84
2018-01-05T00:39:38.477Z,961.81
2018-01-05T00:40:48.458Z,961.82
2018-01-05T00:41:57.382Z,961.84
2018-01-05T00:43:07.111Z,961.85
2018-01-05T00:44:17.093Z,961.88
2018-01-05T00:45:27.082Z,961.85
2018-01-05T00:46:36.804Z,961.92
2018-01-05T00:47:46.797Z,961.91
2018-01-05T00:48:56.786Z,961.87
2018-01-05T00:50:06.244Z,961.92
2018-01-05T00:51:16.235Z,961.91
2018-01-05T00:52:26.223Z,961.84
2018-01-05T00:53:36.209Z,961.81
2018-01-05T00:54:46.188Z,961.83
2018-01-05T00:55:56.170Z,961.87
2018-01-05T00:57:05.625Z,961.91
2018-01-05T00:58:15.615Z,961.93
2018-01-05T00:59:25.598Z,961.88
2018-01-05T01:00:35.583Z,961.89
2018-01-05T01:01:45.570Z,961.86
2018-01-05T01:02:55.559Z,961.86
2018-01-05T01:04:05.281Z,961.85
2018-01-05T01:05:15.000Z,961.87
2018-01-05T01:06:24.732Z,961.83
2018-01-05T01:07:34.719Z,961.83
2018-01-05T01:08:44.700Z,961.86
2018-01-05T01:09:54.682Z,961.87
2018-01-05T01:11:04.407Z,961.88
2018-01-05T01:12:14.124Z,961.86
2018-01-05T01:13:24.109Z,961.85
2018-01-05T01:14:34.094Z,961.86
2018-01-05T01:15:44.080Z,961.82
2018-01-05T01:16:53.854Z,961.83
2018-01-05T01:18:03.572Z,961.87
2018-01-05T01:19:13.554Z,961.89
2018-01-05T01:20:23.548Z,961.94
2018-01-05T01:21:33.538Z,961.91
2018-01-05T01:22:43.528Z,961.95
2018-01-05T01:23:53.248Z,961.95
2018-01-05T01:25:03.229Z,962
2018-01-05T01:26:13.216Z,962.02
2018-01-05T01:27:23.202Z,962.02
2018-01-05T01:28:33.190Z,962.03
2018-01-05T01:29:43.189Z,962.03
2018-01-05T01:30:53.176Z,962.01
2018-01-05T01:32:03.158Z,961.98
2018-01-05T01:33:12.881Z,961.96
2018-01-05T01:34:22.884Z,962.01
2018-01-05T01:35:32.865Z,962
2018-01-05T01:36:42.585Z,961.99
2018-01-05T01:37:52.576Z,962.02
2018-01-05T01:39:02.025Z,962.02
2018-01-05T01:40:11.744Z,962
2018-01-05T01:41:21.198Z,962.01
2018-01-05T01:42:31.177Z,962.03
2018-01-05T01:43:40.891Z,962.03
2018-01-05T01:44:50.875Z,962.01
2018-01-05T01:46:00.064Z,962.01
2018-01-05T01:47:09.787Z,962
2018-01-05T01:48:19.773Z,962.02
2018-01-05T01:49:29.761Z,962.02
2018-01-05T01:50:39.481Z,962.01
2018-01-05T01:51:49.470Z,962.03
2018-01-05T01:52:59.452Z,962
2018-01-05T01:54:09.174Z,962.04
2018-01-05T01:55:19.162Z,962.04
2018-01-05T01:56:29.145Z,962.02
2018-01-05T01:57:39.126Z,962.01
2018-01-05T01:58:49.109Z,962
2018-01-05T01:59:59.099Z,962.01
2018-01-05T02:01:08.552Z,962.01
2018-01-05T02:02:18.543Z,961.98
2018-01-05T02:03:28.258Z,961.98
2018-01-05T02:04:38.249Z,962.06
2018-01-05T02:05:48.231Z,962
2018-01-05T02:06:58.230Z,962.04
2018-01-05T02:08:07.681Z,962.11
2018-01-05T02:09:17.402Z,962.13
2018-01-05T02:10:26.854Z,962.12
2018-01-05T02:11:36.834Z,962.13
2018-01-05T02:12:46.551Z,962.1
2018-01-05T02:13:56.536Z,962.1
2018-01-05T02:15:06.520Z,962.11
2018-01-05T02:16:16.236Z,962.15
2018-01-05T02:17:26.215Z,962.11
2018-01-05T02:18:35.134Z,962.14
2018-01-05T02:19:45.117Z,962.12
2018-01-05T02:20:54.837Z,962.12
2018-01-05T02:22:04.558Z,962.09
2018-01-05T02:23:16.558Z,962.12
2018-01-05T02:24:26.277Z,962.18
2018-01-05T02:25:35.999Z,962.14
2018-01-05T02:26:45.982Z,962.17
2018-01-05T02:27:55.967Z,962.16
2018-01-05T02:29:05.734Z,962.18
2018-01-05T02:30:15.718Z,962.17
2018-01-05T02:31:25.704Z,962.17
2018-01-05T02:32:35.687Z,962.15
2018-01-05T02:33:45.676Z,962.19
2018-01-05T02:34:55.659Z,962.13
2018-01-05T02:36:05.650Z,962.19
2018-01-05T02:37:15.639Z,962.1
2018-01-05T02:38:25.623Z,962.13
2018-01-05T02:39:35.614Z,962.13
2018-01-05T02:40:45.602Z,962.07
2018-01-05T02:41:55.603Z,962.09
2018-01-05T02:43:05.593Z,962.03
2018-01-05T02:44:15.316Z,962
2018-01-05T02:45:25.302Z,962.01
2018-01-05T02:46:35.288Z,962.01
2018-01-05T02:47:45.010Z,962.05
2018-01-05T02:48:55.008Z,962.02
2018-01-05T02:50:04.729Z,962.03
2018-01-05T02:51:14.715Z,962.01
2018-01-05T02:52:24.697Z,961.99
2018-01-05T02:53:34.679Z,962.01
2018-01-05T02:54:44.672Z,962.02
2018-01-05T02:55:54.402Z,962.01
2018-01-05T02:57:04.117Z,961.98
2018-01-05T02:58:14.108Z,962.02
2018-01-05T02:59:24.101Z,962
2018-01-05T03:00:33.825Z,962
2018-01-05T03:01:43.805Z,962.06
2018-01-05T03:02:53.784Z,962.02
2018-01-05T03:04:03.767Z,961.96
2018-01-05T03:05:13.749Z,961.99
2018-01-05T03:06:23.729Z,962.03
2018-01-05T03:07:33.714Z,962.03
2018-01-05T03:08:43.698Z,962.01
2018-01-05T03:09:53.681Z,961.95
2018-01-05T03:11:03.672Z,961.97
2018-01-05T03:12:13.670Z,961.96
2018-01-05T03:13:23.651Z,962.01
2018-01-05T03:14:33.373Z,961.97
2018-01-05T03:15:43.090Z,961.99
2018-01-05T03:16:53.067Z,961.96
2018-01-05T03:18:03.054Z,961.99
2018-01-05T03:19:13.030Z,961.97
2018-01-05T03:20:23.014Z,961.99
2018-01-05T03:21:33.000Z,961.93
2018-01-05T03:22:42.987Z,961.93
2018-01-05T03:23:52.965Z,961.93
2018-01-05T03:25:02.692Z,961.93
2018-01-05T03:26:12.680Z,961.89
2018-01-05T03:27:22.665Z,961.95
2018-01-05T03:28:32.647Z,961.87
2018-01-05T03:29:42.363Z,961.91
2018-01-05T03:30:52.092Z,961.91
2018-01-05T03:32:02.114Z,961.9
2018-01-05T03:33:11.830Z,961.87
2018-01-05T03:34:21.806Z,961.91
2018-01-05T03:35:31.799Z,961.93
2018-01-05T03:36:41.782Z,961.92
2018-01-05T03:37:51.498Z,961.93
2018-01-05T03:39:01.219Z,961.94
2018-01-05T03:40:11.208Z,961.95
2018-01-05T03:41:21.246Z,961.92
2018-01-05T03:42:31.231Z,961.92
2018-01-05T03:43:41.216Z,961.94
2018-01-05T03:44:51.205Z,961.92
2018-01-05T03:46:00.922Z,961.96
2018-01-05T03:47:10.377Z,961.88
2018-01-05T03:48:20.096Z,961.92
2018-01-05T03:49:30.075Z,961.93
2018-01-05T03:50:40.059Z,961.94
2018-01-05T03:51:50.046Z,961.9
2018-01-05T03:52:59.766Z,961.85
2018-01-05T03:54:09.752Z,961.88
2018-01-05T03:55:19.729Z,961.86
2018-01-05T03:56:29.710Z,961.86
2018-01-05T03:57:39.746Z,961.88
2018-01-05T03:58:49.730Z,961.9
2018-01-05T03:59:59.714Z,961.92
2018-01-05T04:03:42.040Z,961.87
2018-01-05T04:04:52.025Z,961.91
2018-01-05T04:06:02.008Z,961.93
2018-01-05T04:07:12.004Z,961.95
2018-01-05T04:08:21.724Z,961.98
2018-01-05T04:09:31.444Z,962.04
2018-01-05T04:10:41.428Z,962.06
2018-01-05T04:11:51.413Z,962.06
2018-01-05T04:13:01.132Z,962.07
2018-01-05T04:14:11.113Z,962.04
2018-01-05T04:15:21.105Z,962.02
2018-01-05T04:16:30.555Z,962.01
2018-01-05T04:17:40.543Z,961.98
2018-01-05T04:18:50.257Z,962.01
2018-01-05T04:20:00.238Z,961.98
2018-01-05T04:21:09.962Z,961.96
2018-01-05T04:22:19.676Z,961.95
2018-01-05T04:23:29.658Z,961.96
2018-01-05T04:24:39.372Z,961.97
2018-01-05T04:25:49.357Z,961.92
2018-01-05T04:26:59.336Z,961.98
2018-01-05T04:28:08.796Z,961.95
2018-01-05T04:29:18.783Z,961.92
2018-01-05T04:30:28.498Z,961.99
2018-01-05T04:31:38.482Z,961.95
2018-01-05T04:32:48.461Z,961.96
2018-01-05T04:33:58.440Z,961.95
2018-01-05T04:35:08.422Z,961.98
2018-01-05T04:36:18.405Z,961.96
2018-01-05T04:37:28.124Z,961.92
2018-01-05T04:38:38.118Z,961.91
2018-01-05T04:39:47.830Z,961.91
2018-01-05T04:40:57.825Z,961.96
2018-01-05T04:42:07.541Z,961.95
2018-01-05T04:43:17.522Z,962.01
2018-01-05T04:44:27.548Z,961.93
2018-01-05T04:45:37.529Z,962.02
2018-01-05T04:46:47.514Z,961.95
2018-01-05T04:47:57.495Z,962.05
2018-01-05T04:49:06.950Z,962.04
2018-01-05T04:50:16.930Z,962.05
2018-01-05T04:51:26.651Z,962.03
2018-01-05T04:52:36.368Z,962.05
2018-01-05T04:53:46.346Z,962.06
2018-01-05T04:54:56.335Z,962.08
2018-01-05T04:56:06.050Z,962.09
2018-01-05T04:57:16.034Z,962.12
2018-01-05T04:58:25.751Z,962.17
2018-01-05T04:59:35.736Z,962.15
2018-01-05T05:00:45.721Z,962.18
2018-01-05T05:01:55.948Z,962.16
2018-01-05T05:03:05.669Z,962.21
2018-01-05T05:04:15.656Z,962.24
2018-01-05T05:05:25.648Z,962.2
2018-01-05T05:06:35.626Z,962.19
2018-01-05T05:07:45.610Z,962.23
2018-01-05T05:08:55.596Z,962.2
2018-01-05T05:10:05.585Z,962.22
2018-01-05T05:11:15.565Z,962.22
2018-01-05T05:12:25.548Z,962.23
2018-01-05T05:13:35.538Z,962.22
2018-01-05T05:14:45.519Z,962.22
2018-01-05T05:15:55.230Z,962.23
2018-01-05T05:17:05.216Z,962.24
2018-01-05T05:18:14.942Z,962.24
2018-01-05T05:19:24.929Z,962.27
2018-01-05T05:20:34.909Z,962.29
2018-01-05T05:21:44.891Z,962.25
2018-01-05T05:22:54.878Z,962.31
2018-01-05T05:24:04.340Z,962.34
2018-01-05T05:25:14.060Z,962.3
2018-01-05T05:26:24.047Z,962.3
2018-01-05T05:27:34.022Z,962.35
2018-01-05T05:28:43.741Z,962.37
2018-01-05T05:29:53.724Z,962.37
2018-01-05T05:31:03.441Z,962.36
2018-01-05T05:32:13.422Z,962.4
2018-01-05T05:33:23.399Z,962.38
2018-01-05T05:34:33.390Z,962.36
2018-01-05T05:35:43.370Z,962.41
2018-01-05T05:36:53.352Z,962.42
2018-01-05T05:38:02.810Z,962.46
2018-01-05T05:39:12.266Z,962.4
2018-01-05T05:40:22.247Z,962.42
2018-01-05T05:41:31.963Z,962.41
2018-01-05T05:42:41.950Z,962.43
2018-01-05T05:43:51.664Z,962.47
2018-01-05T05:45:01.659Z,962.47
2018-01-05T05:46:11.650Z,962.49
2018-01-05T05:47:21.371Z,962.51
2018-01-05T05:48:31.354Z,962.5
2018-01-05T05:49:41.338Z,962.53
2018-01-05T05:50:51.319Z,962.53
2018-01-05T05:52:01.041Z,962.55
2018-01-05T05:53:10.760Z,962.59
2018-01-05T05:54:20.739Z,962.61
2018-01-05T05:55:30.780Z,962.62
2018-01-05T05:56:40.771Z,962.61
2018-01-05T05:57:50.484Z,962.69
2018-01-05T05:59:00.200Z,962.59
2018-01-05T06:00:09.916Z,962.63
2018-01-05T06:01:19.372Z,962.65
2018-01-05T06:02:29.090Z,962.72
2018-01-05T06:03:39.070Z,962.69
2018-01-05T06:04:49.055Z,962.68
2018-01-05T06:05:58.820Z,962.74
2018-01-05T06:07:08.803Z,962.72
2018-01-05T06:08:18.781Z,962.67
2018-01-05T06:09:28.759Z,962.69
2018-01-05T06:10:38.475Z,962.71
2018-01-05T06:11:48.455Z,962.66
2018-01-05T06:12:58.436Z,962.65
2018-01-05T06:14:08.154Z,962.67
2018-01-05T06:15:18.189Z,962.66
2018-01-05T06:16:27.909Z,962.67
2018-01-05T06:17:37.896Z,962.68
2018-01-05T06:18:47.784Z,962.68
2018-01-05T06:19:57.775Z,962.69
2018-01-05T06:21:07.763Z,962.71
2018-01-05T06:22:17.483Z,962.7
2018-01-05T06:23:27.470Z,962.71
2018-01-05T06:24:37.454Z,962.67
2018-01-05T06:25:47.451Z,962.73
2018-01-05T06:26:56.908Z,962.77
2018-01-05T06:28:06.358Z,962.7
2018-01-05T06:29:16.343Z,962.75
2018-01-05T06:30:26.328Z,962.74
2018-01-05T06:31:36.355Z,962.74
2018-01-05T06:32:46.341Z,962.76
2018-01-05T06:33:56.058Z,962.73
2018-01-05T06:35:05.509Z,962.74
2018-01-05T06:36:15.492Z,962.74
2018-01-05T06:37:25.220Z,962.72
2018-01-05T06:38:34.938Z,962.75
2018-01-05T06:39:44.919Z,962.75
2018-01-05T06:40:54.903Z,962.72
2018-01-05T06:42:04.624Z,962.71
2018-01-05T06:43:14.606Z,962.76
2018-01-05T06:44:24.591Z,962.76
2018-01-05T06:45:34.585Z,962.71
2018-01-05T06:46:47.731Z,962.75
2018-01-05T06:47:57.716Z,962.76
2018-01-05T06:49:07.699Z,962.77
2018-01-05T06:50:18.138Z,962.77
2018-01-05T06:51:28.117Z,962.79
2018-01-05T06:52:38.097Z,962.75
2018-01-05T06:53:48.076Z,962.75
2018-01-05T06:54:58.066Z,962.73
2018-01-05T06:56:07.798Z,962.76
2018-01-05T06:57:17.588Z,962.75
2018-01-05T06:58:29.569Z,962.84
2018-01-05T06:59:39.552Z,962.72
2018-01-05T07:00:49.558Z,962.77
2018-01-05T07:01:59.277Z,962.8
2018-01-05T07:03:08.503Z,962.78
2018-01-05T07:04:18.497Z,962.88
2018-01-05T07:05:28.216Z,962.83
2018-01-05T07:06:38.196Z,962.89
2018-01-05T07:07:47.643Z,962.89
2018-01-05T07:08:57.361Z,962.91
2018-01-05T07:10:07.446Z,962.98
2018-01-05T07:11:17.237Z,962.98
2018-01-05T07:12:26.696Z,962.98
2018-01-05T07:13:36.411Z,963.03
2018-01-05T07:14:46.392Z,963.02
2018-01-05T07:15:56.419Z,962.99
2018-01-05T07:17:06.401Z,963
2018-01-05T07:18:16.381Z,963.02
2018-01-05T07:19:26.369Z,963.01
2018-01-05T07:20:35.816Z,963.02
2018-01-05T07:21:45.529Z,963.02
2018-01-05T07:22:55.511Z,963.05
2018-01-05T07:24:05.228Z,963.03
2018-01-05T07:25:14.949Z,963.09
2018-01-05T07:26:24.932Z,963.08
2018-01-05T07:27:34.921Z,963.1
2018-01-05T07:28:44.902Z,963.19
2018-01-05T07:29:54.887Z,963.16
2018-01-05T07:31:04.611Z,963.24
2018-01-05T07:32:14.329Z,963.29
2018-01-05T07:33:24.310Z,963.32
2018-01-05T07:34:34.027Z,963.28
2018-01-05T07:35:44.010Z,963.33
2018-01-05T07:36:53.725Z,963.29
2018-01-05T07:38:03.707Z,963.32
2018-01-05T07:39:13.946Z,963.35
2018-01-05T07:40:23.928Z,963.34
2018-01-05T07:41:33.642Z,963.38
2018-01-05T07:42:43.672Z,963.37
2018-01-05T07:43:53.658Z,963.38
2018-01-05T07:45:02.844Z,963.39
2018-01-05T07:46:12.564Z,963.35
2018-01-05T07:47:22.544Z,963.37
2018-01-05T07:48:32.524Z,963.34
2018-01-05T07:49:42.506Z,963.39
2018-01-05T07:50:52.487Z,963.34
2018-01-05T07:52:01.944Z,963.35
2018-01-05T07:53:11.939Z,963.32
2018-01-05T07:54:21.920Z,963.34
2018-01-05T07:55:31.906Z,963.31
2018-01-05T07:56:41.887Z,963.27
2018-01-05T07:57:51.604Z,963.32
2018-01-05T07:59:01.594Z,963.24
2018-01-05T08:00:11.312Z,963.29
2018-01-05T08:01:21.027Z,963.32
2018-01-05T08:02:34.459Z,963.32
2018-01-05T08:03:44.175Z,963.32
2018-01-05T08:04:53.893Z,963.33
2018-01-05T08:06:03.349Z,963.33
2018-01-05T08:07:12.806Z,963.37
2018-01-05T08:08:22.943Z,963.38
2018-01-05T08:09:32.927Z,963.41
2018-01-05T08:10:42.908Z,963.46
2018-01-05T08:11:52.898Z,963.49
2018-01-05T08:13:02.624Z,963.5
2018-01-05T08:14:12.851Z,963.53
2018-01-05T08:15:22.858Z,963.54
2018-01-05T08:16:32.909Z,963.55
2018-01-05T08:17:42.626Z,963.57
2018-01-05T08:18:52.611Z,963.59
2018-01-05T08:20:02.793Z,963.62
2018-01-05T08:21:12.508Z,963.65
2018-01-05T08:22:22.496Z,963.6
2018-01-05T08:23:32.479Z,963.66
2018-01-05T08:24:42.203Z,963.65
2018-01-05T08:25:52.233Z,963.64
2018-01-05T08:27:01.954Z,963.67
2018-01-05T08:28:11.668Z,963.71
2018-01-05T08:29:21.647Z,963.71
2018-01-05T08:30:31.627Z,963.69
2018-01-05T08:31:41.717Z,963.71
2018-01-05T08:32:51.432Z,963.73
2018-01-05T08:34:01.419Z,963.68
2018-01-05T08:35:11.141Z,963.7
2018-01-05T08:36:20.859Z,963.71
2018-01-05T08:37:30.894Z,963.73
2018-01-05T08:38:40.917Z,963.74
2018-01-05T08:39:50.367Z,963.78
2018-01-05T08:41:00.084Z,963.78
2018-01-05T08:42:10.067Z,963.81
2018-01-05T08:43:20.050Z,963.86
2018-01-05T08:44:29.766Z,963.8
2018-01-05T08:45:39.750Z,963.82
2018-01-05T08:46:49.746Z,963.79
2018-01-05T08:47:59.739Z,963.81
2018-01-05T08:49:09.190Z,963.85
2018-01-05T08:50:18.905Z,963.86
2018-01-05T08:51:28.900Z,963.84
2018-01-05T08:52:38.617Z,963.85
2018-01-05T08:53:48.072Z,963.83
2018-01-05T08:54:57.785Z,963.81
2018-01-05T08:56:07.286Z,963.84
2018-01-05T08:57:17.000Z,963.88
2018-01-05T08:58:26.982Z,963.87
2018-01-05T08:59:36.698Z,963.9
2018-01-05T09:00:46.412Z,963.9
2018-01-05T09:01:56.130Z,963.86
2018-01-05T09:03:05.581Z,963.89
2018-01-05T09:04:15.577Z,963.88
2018-01-05T09:05:25.559Z,963.93
2018-01-05T09:06:35.640Z,963.95
2018-01-05T09:07:45.628Z,963.93
2018-01-05T09:08:55.612Z,963.91
2018-01-05T09:10:05.349Z,963.94
2018-01-05T09:11:15.363Z,963.94
2018-01-05T09:12:25.341Z,963.96
2018-01-05T09:13:35.324Z,963.96
2018-01-05T09:14:45.303Z,963.98
2018-01-05T09:15:55.284Z,963.96
2018-01-05T09:17:05.311Z,963.97
2018-01-05T09:18:14.766Z,963.95
2018-01-05T09:19:24.752Z,964.01
2018-01-05T09:20:34.469Z,964.01
2018-01-05T09:21:44.446Z,964.02
2018-01-05T09:22:54.165Z,964
2018-01-05T09:24:04.209Z,963.99
2018-01-05T09:25:14.204Z,963.98
2018-01-05T09:26:24.197Z,964.03
2018-01-05T09:27:34.179Z,964.04
2018-01-05T09:28:43.635Z,964.06
2018-01-05T09:29:53.350Z,964.01
2018-01-05T09:31:03.339Z,964.03
2018-01-05T09:32:13.328Z,964.07
2018-01-05T09:33:23.308Z,964.06
2018-01-05T09:34:33.362Z,964.02
2018-01-05T09:35:42.815Z,964.03
2018-01-05T09:36:52.536Z,964
2018-01-05T09:38:02.261Z,964
2018-01-05T09:39:11.972Z,964.03
2018-01-05T09:40:21.960Z,964.05
2018-01-05T09:41:31.673Z,964.01
2018-01-05T09:42:41.662Z,964.04
2018-01-05T09:43:51.645Z,964.02
2018-01-05T09:45:01.096Z,964.05
2018-01-05T09:46:11.083Z,964.04
2018-01-05T09:47:21.063Z,964.08
2018-01-05T09:48:31.053Z,964.04
2018-01-05T09:49:41.042Z,964.03
2018-01-05T09:50:51.046Z,964.02
2018-01-05T09:52:01.054Z,964.01
2018-01-05T09:53:10.773Z,964.01
2018-01-05T09:54:20.753Z,964.05
2018-01-05T09:55:30.734Z,964.07
2018-01-05T09:56:40.722Z,964.07
2018-01-05T09:57:50.696Z,964.1
2018-01-05T09:59:00.734Z,964.1
2018-01-05T10:00:10.451Z,964.14
2018-01-05T10:01:20.215Z,964.14
2018-01-05T10:02:30.195Z,964.09
2018-01-05T10:03:40.213Z,964.11
2018-01-05T10:04:50.202Z,964.11
2018-01-05T10:06:00.189Z,964.06
2018-01-05T10:07:09.912Z,964.11
2018-01-05T10:08:19.896Z,964.13
2018-01-05T10:09:29.624Z,964.14
2018-01-05T10:10:39.085Z,964.14
2018-01-05T10:11:49.077Z,964.16
2018-01-05T10:12:59.075Z,964.19
2018-01-05T10:14:09.065Z,964.16
2018-01-05T10:15:19.047Z,964.22
2018-01-05T10:16:28.869Z,964.14
2018-01-05T10:17:38.866Z,964.17
2018-01-05T10:18:48.867Z,964.2
2018-01-05T10:19:58.858Z,964.19
2018-01-05T10:21:08.321Z,964.17
2018-01-05T10:22:18.047Z,964.18
2018-01-05T10:23:28.032Z,964.18
2018-01-05T10:24:38.021Z,964.18
2018-01-05T10:25:48.052Z,964.15
2018-01-05T10:26:58.040Z,964.18
2018-01-05T10:28:08.032Z,964.23
2018-01-05T10:29:18.021Z,964.21
2018-01-05T10:30:28.019Z,964.25
2018-01-05T10:31:37.753Z,964.23
2018-01-05T10:32:47.745Z,964.22
2018-01-05T10:33:58.240Z,964.23
2018-01-05T10:35:08.228Z,964.23
2018-01-05T10:36:18.210Z,964.2
2018-01-05T10:37:27.935Z,964.26
2018-01-05T10:38:37.669Z,964.27
2018-01-05T10:39:47.651Z,964.26
2018-01-05T10:40:57.707Z,964.27
2018-01-05T10:42:07.696Z,964.26
2018-01-05T10:43:17.419Z,964.26
2018-01-05T10:44:27.409Z,964.29
2018-01-05T10:45:37.396Z,964.31
2018-01-05T10:46:47.383Z,964.3
2018-01-05T10:47:57.421Z,964.28
2018-01-05T10:49:06.609Z,964.32
2018-01-05T10:50:16.593Z,964.25
2018-01-05T10:51:26.049Z,964.3
2018-01-05T10:52:36.034Z,964.27
2018-01-05T10:53:46.023Z,964.3
2018-01-05T10:54:55.740Z,964.31
2018-01-05T10:56:05.461Z,964.33
2018-01-05T10:57:15.552Z,964.35
2018-01-05T10:58:25.542Z,964.37
2018-01-05T10:59:35.534Z,964.36
2018-01-05T11:00:45.518Z,964.36
2018-01-05T11:01:55.238Z,964.39
2018-01-05T11:03:04.967Z,964.4
2018-01-05T11:04:14.420Z,964.43
2018-01-05T11:05:24.409Z,964.48
2018-01-05T11:06:34.393Z,964.45
2018-01-05T11:07:44.379Z,964.49
2018-01-05T11:08:54.367Z,964.5
2018-01-05T11:10:04.351Z,964.51
2018-01-05T11:11:14.386Z,964.48
2018-01-05T11:12:24.105Z,964.5
2018-01-05T11:13:34.089Z,964.48
2018-01-05T11:14:44.076Z,964.48
2018-01-05T11:15:54.068Z,964.5
2018-01-05T11:17:04.055Z,964.49
2018-01-05T11:18:13.778Z,964.46
2018-01-05T11:19:23.511Z,964.43
2018-01-05T11:20:33.497Z,964.42
2018-01-05T11:21:43.485Z,964.42
2018-01-05T11:22:53.202Z,964.46
2018-01-05T11:24:02.922Z,964.42
2018-01-05T11:25:12.641Z,964.47
2018-01-05T11:26:22.623Z,964.47
2018-01-05T11:27:32.338Z,964.48
2018-01-05T11:28:42.336Z,964.48
2018-01-05T11:29:52.065Z,964.52
2018-01-05T11:31:02.053Z,964.49
2018-01-05T11:32:12.040Z,964.52
2018-01-05T11:33:22.027Z,964.56
2018-01-05T11:34:32.011Z,964.56
2018-01-05T11:35:42.057Z,964.49
2018-01-05T11:36:52.041Z,964.57
2018-01-05T11:38:01.227Z,964.56
2018-01-05T11:39:10.683Z,964.55
2018-01-05T11:40:20.400Z,964.55
2018-01-05T11:41:30.384Z,964.57
2018-01-05T11:42:40.176Z,964.55
2018-01-05T11:43:50.164Z,964.58
2018-01-05T11:44:59.887Z,964.6
2018-01-05T11:46:09.613Z,964.61
2018-01-05T11:47:19.348Z,964.61
2018-01-05T11:48:29.334Z,964.54
2018-01-05T11:49:39.317Z,964.58
2018-01-05T11:50:49.040Z,964.59
2018-01-05T11:51:59.023Z,964.59
2018-01-05T11:53:08.480Z,964.55
2018-01-05T11:54:17.931Z,964.55
2018-01-05T11:55:27.964Z,964.55
2018-01-05T11:56:37.685Z,964.53
2018-01-05T11:57:47.674Z,964.53
2018-01-05T11:58:57.674Z,964.55
2018-01-05T12:00:07.668Z,964.61
2018-01-05T12:01:17.656Z,964.58
2018-01-05T12:02:27.378Z,964.58
2018-01-05T12:03:37.362Z,964.56
2018-01-05T12:04:47.351Z,964.59
2018-01-05T12:05:57.340Z,964.62
2018-01-05T12:07:07.059Z,964.64
2018-01-05T12:08:17.051Z,964.63
2018-01-05T12:09:26.768Z,964.62
2018-01-05T12:10:36.756Z,964.67
2018-01-05T12:11:46.739Z,964.66
2018-01-05T12:12:56.458Z,964.72
2018-01-05T12:14:06.184Z,964.68
2018-01-05T12:15:16.218Z,964.67
2018-01-05T12:16:25.936Z,964.72
2018-01-05T12:17:35.654Z,964.71
2018-01-05T12:18:45.637Z,964.7
2018-01-05T12:19:55.621Z,964.71
2018-01-05T12:21:05.072Z,964.73
2018-01-05T12:22:15.055Z,964.75
2018-01-05T12:23:25.039Z,964.73
2018-01-05T12:24:34.758Z,964.71
2018-01-05T12:25:44.219Z,964.71
2018-01-05T12:26:53.934Z,964.75
2018-01-05T12:28:03.672Z,964.77
2018-01-05T12:29:13.659Z,964.8
2018-01-05T12:30:23.740Z,964.78
2018-01-05T12:31:33.461Z,964.76
2018-01-05T12:32:43.448Z,964.77
2018-01-05T12:33:52.635Z,964.74
2018-01-05T12:35:02.365Z,964.78
2018-01-05T12:36:12.348Z,964.76
2018-01-05T12:37:22.333Z,964.77
2018-01-05T12:38:32.318Z,964.78
2018-01-05T12:39:42.300Z,964.77
2018-01-05T12:40:52.282Z,964.82
2018-01-05T12:42:01.749Z,964.86
2018-01-05T12:43:11.731Z,964.86
2018-01-05T12:44:21.719Z,964.85
2018-01-05T12:45:31.704Z,964.86
2018-01-05T12:46:41.426Z,964.87
2018-01-05T12:47:51.416Z,964.83
2018-01-05T12:49:01.469Z,964.84
2018-01-05T12:50:11.458Z,964.82
2018-01-05T12:51:21.181Z,964.77
2018-01-05T12:52:30.904Z,964.74
2018-01-05T12:53:40.891Z,964.8
2018-01-05T12:54:50.881Z,964.82
2018-01-05T12:56:00.869Z,964.82
2018-01-05T12:57:10.325Z,964.78
2018-01-05T12:58:20.309Z,964.81
2018-01-05T12:59:30.341Z,964.82
2018-01-05T13:00:40.327Z,964.83
2018-01-05T13:01:50.313Z,964.82
2018-01-05T13:03:00.296Z,964.85
2018-01-05T13:04:10.016Z,964.82
2018-01-05T13:05:19.740Z,964.82
2018-01-05T13:06:29.724Z,964.85
2018-01-05T13:07:39.442Z,964.89
2018-01-05T13:08:49.157Z,964.88
2018-01-05T13:09:59.139Z,964.89
2018-01-05T13:11:09.132Z,964.91
2018-01-05T13:12:19.116Z,964.92
2018-01-05T13:13:29.101Z,964.93
2018-01-05T13:14:39.085Z,964.93
2018-01-05T13:15:49.075Z,964.94
2018-01-05T13:16:59.056Z,964.91
2018-01-05T13:18:08.787Z,964.95
2018-01-05T13:19:18.506Z,964.98
2018-01-05T13:20:27.959Z,964.97
2018-01-05T13:21:37.943Z,964.98
2018-01-05T13:22:47.662Z,965
2018-01-05T13:23:57.671Z,965.03
2018-01-05T13:25:07.661Z,965.02
2018-01-05T13:26:17.644Z,965.02
2018-01-05T13:27:27.628Z,965.02
2018-01-05T13:28:37.617Z,964.98
2018-01-05T13:29:47.603Z,965.06
2018-01-05T13:30:57.595Z,965.04
2018-01-05T13:32:07.315Z,965.04
2018-01-05T13:33:17.034Z,965.05
2018-01-05T13:34:26.854Z,965.06
2018-01-05T13:35:36.571Z,965.07
2018-01-05T13:36:46.555Z,965.06
2018-01-05T13:37:56.270Z,965.11
2018-01-05T13:39:06.260Z,965.14
2018-01-05T13:40:15.715Z,965.14
2018-01-05T13:41:24.904Z,965.16
2018-01-05T13:42:34.887Z,965.16
2018-01-05T13:43:44.606Z,965.19
2018-01-05T13:44:54.592Z,965.14
2018-01-05T13:46:04.318Z,965.17
2018-01-05T13:47:13.771Z,965.13
2018-01-05T13:48:23.752Z,965.13
2018-01-05T13:49:33.208Z,965.13
2018-01-05T13:50:42.930Z,965.1
2018-01-05T13:51:52.911Z,965.17
2018-01-05T13:53:02.904Z,965.14
2018-01-05T13:54:12.891Z,965.16
2018-01-05T13:55:22.613Z,965.15
2018-01-05T13:56:32.336Z,965.15
2018-01-05T13:57:42.056Z,965.15
2018-01-05T13:58:52.037Z,965.18
2018-01-05T14:00:01.757Z,965.17
2018-01-05T14:01:11.220Z,965.19
2018-01-05T14:02:21.203Z,965.2
2018-01-05T14:03:30.921Z,965.21
2018-01-05T14:04:40.903Z,965.21
2018-01-05T14:05:50.886Z,965.16
2018-01-05T14:07:00.605Z,965.15
2018-01-05T14:08:10.378Z,965.16
2018-01-05T14:09:20.178Z,965.16
2018-01-05T14:10:30.168Z,965.17
2018-01-05T14:11:40.148Z,965.2
2018-01-05T14:12:50.134Z,965.19
2018-01-05T14:14:00.145Z,965.16
2018-01-05T14:15:10.143Z,965.19
2018-01-05T14:16:20.126Z,965.19
2018-01-05T14:17:30.121Z,965.23
2018-01-05T14:18:40.121Z,965.22
2018-01-05T14:19:50.108Z,965.23
2018-01-05T14:21:00.088Z,965.24
2018-01-05T14:22:10.078Z,965.33
2018-01-05T14:23:20.106Z,965.3
2018-01-05T14:24:30.147Z,965.3
2018-01-05T14:25:40.129Z,965.33
2018-01-05T14:26:50.357Z,965.3
2018-01-05T14:28:00.085Z,965.26
2018-01-05T14:29:09.804Z,965.29
2018-01-05T14:30:19.521Z,965.33
2018-01-05T14:31:29.246Z,965.32
2018-01-05T14:32:39.288Z,965.38
2018-01-05T14:33:49.276Z,965.34
2018-01-05T14:34:59.270Z,965.37
2018-01-05T14:36:09.251Z,965.42
2018-01-05T14:37:19.234Z,965.43